Latest Weather Observations for Glen Innes Airport

IDN60801

Issued at 4:32 pm EST Wednesday 1 July 2015 (issued every 30 minutes, with the page automatically refreshed every 10 minutes)

About weather observations | Map of weather stations | Latest weather observations for NSW | Other Formats
Station Details ID: 056243 Name: GLEN INNES AIRPORT AWS Lat: -29.68 Lon: 151.69 Height: 1044.3 m
Data from the previous 72 hours. | See also: Recent months for locations in New South Wales
Date/Time
EST
Temp
°C
App
Temp
°C
Dew
Point
Rel
Hum
%
Delta-T
°C
Wind Press
QNH
hPa
Press
MSL
hPa
Rain
since 9 am
mm
Dir
 
Spd
km/h
Gust
km/h
Spd
kts
Gust
kts
01/04:00pm 11.5 8.4 5.6 67 2.9 W 11 17 6 9 1023.1 1023.8 0.2
01/03:30pm 9.8 2.8 5.8 76 2.0 W 32 50 17 27 1023.5 1024.1 0.2
01/03:25pm 10.4 4.5 5.8 73 2.2 W 26 50 14 27 1023.5 1024.1 0.0
01/03:00pm 13.3 9.0 5.2 58 4.0 WSW 17 20 9 11 1023.3 1023.9 0.0
01/02:30pm 13.1 8.2 5.3 59 3.9 W 20 26 11 14 1023.4 1024.0 0.0
01/02:00pm 12.4 7.6 5.6 63 3.4 W 20 28 11 15 1023.6 1024.2 0.0
01/01:30pm 14.0 9.4 6.4 60 3.9 W 20 26 11 14 1023.6 1024.2 0.0
01/01:00pm 12.8 8.4 6.4 65 3.2 SW 19 28 10 15 1024.0 1024.7 0.0
01/12:30pm 13.8 8.5 5.2 56 4.3 W 22 30 12 16 1024.4 1025.0 0.0
01/12:00pm 12.4 8.6 5.6 63 3.4 WSW 15 20 8 11 1024.8 1025.5 0.0
01/11:30am 12.3 8.6 6.4 67 3.0 WSW 15 24 8 13 1025.3 1025.9 0.0
01/11:00am 11.6 7.8 7.5 76 2.1 WSW 17 24 9 13 1025.7 1026.4 0.0
01/10:00am 11.2 8.4 7.1 76 2.1 WSW 11 20 6 11 1026.1 1026.8 0.0
01/09:30am 10.3 7.5 7.0 80 1.7 WSW 11 17 6 9 1026.2 1026.5 0.0
01/09:00am 9.7 7.8 6.8 82 1.4 SW 6 11 3 6 1026.1 1026.4 0.0
01/08:00am 6.7 4.5 6.1 96 0.3 ESE 7 9 4 5 1025.8 1026.0 0.0
01/07:47am 5.6 3.1 5.0 96 0.3 ESE 7 9 4 5 1025.8 1026.0 0.0
01/07:30am 4.4 1.8 4.0 97 0.2 ESE 7 11 4 6 1025.7 1025.9 0.0
01/07:20am 4.0 1.3 3.6 97 0.2 ESE 7 9 4 5 1025.7 1025.9 0.0
01/07:00am 4.3 3.0 3.9 97 0.2 CALM 0 7 0 4 1025.7 1025.9 0.0
01/06:30am 3.8 2.4 3.4 97 0.2 CALM 0 0 0 0 1025.5 1025.7 0.0
01/06:00am 2.4 -0.6 1.8 96 0.2 SE 7 9 4 5 1025.1 1025.4 0.0
01/05:49am 1.7 -2.3 0.7 93 0.4 SSE 11 11 6 6 1025.0 1025.2 0.0
01/05:36am 2.7 -0.7 1.7 93 0.4 SSE 9 13 5 7 1024.9 1025.1 0.0
01/05:31am 2.7 -0.8 1.5 92 0.5 SE 9 9 5 5 1024.9 1025.1 0.0
01/05:26am 2.9 0.0 1.6 91 0.5 ESE 6 9 3 5 1024.9 1025.1 0.0
01/05:00am 4.6 1.1 3.4 92 0.5 E 11 11 6 6 1024.9 1025.1 0.0
01/04:30am 6.0 4.9 5.0 93 0.5 CALM 0 0 0 0 1024.9 1025.1 0.0
01/04:00am 6.3 4.9 5.3 93 0.5 SSE 2 6 1 3 1025.3 1025.5 0.0
01/03:30am 6.2 4.0 5.3 94 0.4 SSW 6 7 3 4 1025.1 1025.4 0.0
01/03:00am 5.7 2.8 4.8 94 0.4 ESE 9 11 5 6 1025.0 1025.2 0.0
01/02:30am 5.6 3.2 4.4 92 0.5 SSE 6 6 3 3 1025.3 1025.5 0.0
01/02:00am 5.5 2.6 4.5 93 0.5 SE 9 9 5 5 1025.5 1025.7 0.0
01/01:30am 5.3 2.3 4.0 91 0.6 E 9 11 5 6 1025.7 1025.9 0.0
01/01:00am 5.5 2.5 4.2 91 0.6 E 9 11 5 6 1025.9 1026.2 0.0
01/12:30am 5.8 3.2 4.4 91 0.6 ESE 7 9 4 5 1026.2 1026.5 0.0
01/12:00am 6.3 3.8 4.8 90 0.7 E 7 9 4 5 1026.5 1026.7 0.0
 
Date/Time
EST
Temp
°C
App
Temp
°C
Dew
Point
Rel
Hum
%
Delta-T
°C
Wind Press
QNH
hPa
Press
MSL
hPa
Rain
since 9 am
mm
Dir
 
Spd
km/h
Gust
km/h
Spd
kts
Gust
kts
30/11:30pm 6.2 3.3 4.8 91 0.6 ESE 9 13 5 7 1026.8 1027.1 0.0
30/11:00pm 6.2 2.6 5.0 92 0.6 ESE 13 15 7 8 1027.0 1027.3 0.0
30/10:30pm 4.2 1.0 3.3 94 0.4 ESE 9 11 5 6 1027.1 1027.4 0.0
30/10:00pm 4.6 1.9 3.7 94 0.4 ESE 7 9 4 5 1027.4 1027.6 0.0
30/09:30pm 4.5 1.0 3.3 92 0.5 SSE 11 13 6 7 1027.2 1027.5 0.0
30/09:00pm 5.7 2.4 4.5 92 0.5 E 11 11 6 6 1027.5 1027.7 0.0
30/08:30pm 5.6 3.2 4.2 91 0.6 SSE 6 7 3 4 1027.4 1027.6 0.0
30/08:00pm 6.1 4.9 4.6 90 0.7 CALM 0 0 0 0 1027.4 1027.6 0.0
30/07:30pm 7.2 6.1 5.0 86 1.0 CALM 0 0 0 0 1027.4 1027.6 0.0
30/07:00pm 8.0 5.8 5.5 84 1.2 SSE 6 7 3 4 1027.2 1027.5 0.0
30/06:30pm 9.6 8.0 6.3 80 1.6 WNW 4 6 2 3 1027.2 1027.5 0.0
30/06:00pm 9.6 7.0 6.1 79 1.7 W 9 11 5 6 1026.9 1027.2 0.0
30/05:30pm 9.8 7.3 5.0 72 2.3 NW 7 9 4 5 1026.7 1026.9 0.0
30/05:00pm 11.3 9.0 5.8 69 2.7 N 7 9 4 5 1026.8 1027.1 0.0
30/04:30pm 11.6 9.4 6.1 69 2.7 NW 7 9 4 5 1026.5 1026.7 0.0
30/04:00pm 12.3 8.5 5.9 65 3.2 WNW 15 17 8 9 1026.4 1026.6 0.0
30/03:30pm 12.7 8.1 6.3 65 3.2 WNW 20 24 11 13 1026.4 1026.6 0.0
30/03:00pm 14.1 10.4 4.4 52 4.7 NW 13 17 7 9 1026.4 1026.6 0.0
30/02:30pm 14.5 11.4 3.6 48 5.3 WNW 9 13 5 7 1026.2 1026.5 0.0
30/02:00pm 15.3 12.4 2.5 42 6.0 WNW 7 13 4 7 1026.4 1026.6 0.0
30/01:30pm 15.2 12.2 2.1 41 6.2 E 7 13 4 7 1026.5 1026.7 0.0
30/01:00pm 15.1 12.2 4.5 49 5.2 NNW 9 13 5 7 1027.1 1027.4 0.0
30/12:30pm 14.2 12.0 6.1 58 4.1 NNW 7 15 4 8 1027.6 1027.9 0.0
30/12:00pm 14.2 12.0 7.7 65 3.4 NNE 9 17 5 9 1028.1 1028.4 0.0
30/11:30am 13.6 10.5 7.4 66 3.2 NE 13 17 7 9 1028.7 1029.0 0.0
30/11:00am 12.7 10.6 8.4 75 2.2 NE 9 15 5 8 1029.0 1029.3 0.0
30/10:30am 11.4 9.3 8.4 82 1.6 E 9 13 5 7 1029.0 1029.3 0.0
30/10:00am 10.1 7.6 8.2 88 1.0 SE 11 15 6 8 1029.6 1029.9 0.0
30/09:30am 9.2 6.2 7.8 91 0.7 ESE 13 19 7 10 1029.6 1029.9 0.0
30/09:22am 9.1 6.1 7.9 92 0.6 ESE 13 17 7 9 1029.7 1030.0 0.0
30/09:00am 7.8 3.9 6.9 94 0.4 SE 17 20 9 11 1029.8 1030.1 0.2
30/08:30am 7.2 3.2 6.8 97 0.2 SE 17 20 9 11 1030.0 1030.3 0.2
30/08:01am 6.7 3.0 6.3 97 0.2 SSE 15 19 8 10 1029.8 1030.1 0.2
30/08:00am 6.7 3.0 6.3 97 0.2 SSE 15 19 8 10 1029.7 1030.0 0.2
30/07:44am 6.5 3.1 6.1 97 0.2 SE 13 19 7 10 1029.7 1030.0 0.2
30/07:30am 5.8 2.7 5.4 97 0.2 SSE 11 15 6 8 1029.6 1029.9 0.2
30/07:22am 5.4 2.2 5.1 98 0.1 SSE 11 15 6 8 1029.5 1029.8 0.2
30/07:15am 5.0 2.1 4.7 98 0.1 SSE 9 11 5 6 1029.3 1029.7 0.2
30/07:00am 3.7 0.6 3.4 98 0.1 SSE 9 13 5 7 1029.3 1029.7 0.2
30/06:30am 3.5 -0.8 3.2 98 0.1 SE 15 19 8 10 1029.2 1029.6 0.2
30/06:23am 2.4 -2.1 2.1 98 0.1 SE 15 19 8 10 1029.2 1029.6 0.2
30/06:20am 2.1 -2.5 1.8 98 0.1 ESE 15 19 8 10 1029.2 1029.6 0.2
30/06:00am 1.3 -3.4 1.0 98 0.1 ESE 15 17 8 9 1029.2 1029.6 0.2
30/05:49am 1.4 -2.9 1.0 97 0.2 ESE 13 15 7 8 1029.3 1029.7 0.2
30/05:48am 1.5 -3.2 1.1 97 0.2 ESE 15 15 8 8 1029.3 1029.7 0.2
30/05:30am 2.0 -1.8 1.6 97 0.2 E 11 13 6 7 1029.3 1029.7 0.2
30/05:00am 2.2 -0.8 1.8 97 0.2 E 7 11 4 6 1029.0 1029.3 0.2
30/04:37am 2.4 -1.0 2.0 97 0.2 E 9 11 5 6 1028.9 1029.2 0.2
30/04:30am 2.6 -0.7 2.2 97 0.2 ENE 9 11 5 6 1028.9 1029.2 0.2
30/04:29am 2.6 -0.4 2.2 97 0.2 ENE 7 11 4 6 1028.9 1029.2 0.2
30/04:00am 2.3 -1.6 1.4 94 0.4 SE 11 13 6 7 1028.9 1029.2 0.2
30/03:54am 2.9 -1.2 2.0 94 0.4 SE 13 15 7 8 1029.0 1029.3 0.2
30/03:47am 3.2 -0.9 2.3 94 0.4 SE 13 15 7 8 1029.1 1029.4 0.2
30/03:30am 4.3 0.1 3.6 95 0.3 SE 15 17 8 9 1029.3 1029.7 0.2
30/03:00am 5.5 1.9 5.1 97 0.2 SE 13 17 7 9 1029.7 1030.0 0.2
30/02:30am 5.4 1.4 5.0 97 0.2 SE 15 19 8 10 1029.8 1030.1 0.2
30/02:29am 5.5 1.5 5.1 97 0.2 SE 15 19 8 10 1029.8 1030.1 0.2
30/02:00am 5.1 1.4 4.2 94 0.4 SE 13 17 7 9 1029.9 1030.2 0.0
30/01:30am 5.4 1.7 4.5 94 0.4 SE 13 17 7 9 1029.9 1030.2 0.0
30/01:00am 5.1 1.0 4.1 93 0.4 ESE 15 17 8 9 1030.0 1030.3 0.0
30/12:30am 5.9 1.5 4.9 93 0.5 ESE 17 20 9 11 1030.2 1030.6 0.0
30/12:00am 6.3 2.5 5.6 95 0.3 ESE 15 19 8 10 1030.3 1030.7 0.0
 
Date/Time
EST
Temp
°C
App
Temp
°C
Dew
Point
Rel
Hum
%
Delta-T
°C
Wind Press
QNH
hPa
Press
MSL
hPa
Rain
since 9 am
mm
Dir
 
Spd
km/h
Gust
km/h
Spd
kts
Gust
kts
29/11:30pm 6.1 3.2 4.7 91 0.6 SE 9 13 5 7 1030.8 1031.1 0.0
29/11:00pm 7.5 3.5 6.8 95 0.3 ESE 17 20 9 11 1031.0 1031.4 0.0
29/10:58pm 7.4 3.8 6.7 95 0.3 ESE 15 20 8 11 1031.0 1031.4 0.0
29/10:30pm 7.2 3.8 6.0 92 0.6 ESE 13 15 7 8 1031.3 1031.7 0.0
29/10:28pm 7.4 4.1 6.2 92 0.6 ESE 13 15 7 8 1031.3 1031.7 0.0
29/10:00pm 7.8 5.3 6.6 92 0.6 SE 9 13 5 7 1031.4 1031.8 0.0
29/09:30pm 8.0 4.5 7.1 94 0.4 ESE 15 20 8 11 1031.2 1031.6 0.0
29/09:00pm 5.9 2.7 4.9 93 0.5 ESE 11 13 6 7 1031.6 1031.9 0.0
29/08:56pm 5.9 2.6 4.7 92 0.6 ESE 11 13 6 7 1031.6 1031.9 0.0
29/08:30pm 7.4 4.8 6.3 93 0.5 SE 9 11 5 6 1031.6 1031.9 0.0
29/08:13pm 7.5 4.9 6.3 92 0.6 ESE 9 13 5 7 1031.6 1031.9 0.0
29/08:04pm 7.6 4.6 6.2 91 0.7 ESE 11 15 6 8 1031.3 1031.7 0.0
29/08:00pm 7.9 4.6 6.5 91 0.7 ESE 13 17 7 9 1031.3 1031.7 0.0
29/07:49pm 8.4 4.6 7.6 95 0.4 ESE 17 20 9 11 1031.2 1031.6 0.0
29/07:30pm 7.5 3.9 6.9 96 0.3 ESE 15 17 8 9 1031.2 1031.6 0.0
29/07:00pm 6.2 3.2 4.2 87 0.9 E 9 9 5 5 1031.0 1031.4 0.0
29/06:30pm 8.4 5.8 6.0 85 1.2 E 9 11 5 6 1030.5 1030.8 0.0
29/06:00pm 7.6 5.2 5.2 85 1.1 ESE 7 11 4 6 1030.2 1030.6 0.0
29/05:30pm 8.2 4.2 5.0 80 1.5 ESE 15 17 8 9 1029.7 1030.0 0.0
29/05:00pm 10.6 6.3 5.2 69 2.6 ESE 17 19 9 10 1029.5 1029.8 0.0
29/04:30pm 12.8 9.1 4.5 57 4.0 ESE 13 17 7 9 1029.6 1029.9 0.0
29/04:00pm 13.7 9.7 4.8 55 4.3 E 15 17 8 9 1029.6 1029.9 0.0
29/03:30pm 15.2 11.4 3.7 46 5.6 E 13 15 7 8 1029.5 1029.8 0.0
29/03:00pm 15.8 12.8 0.8 36 6.8 NW 6 11 3 6 1029.5 1029.8 0.0
29/02:30pm 15.6 12.9 2.4 41 6.3 NE 6 9 3 5 1029.5 1029.8 0.0
29/02:00pm 16.3 12.9 2.0 38 6.7 ENE 9 17 5 9 1029.6 1029.9 0.0
29/01:30pm 15.6 12.5 1.3 38 6.6 SSE 7 15 4 8 1030.0 1030.3 0.0
29/01:00pm 15.7 11.8 1.4 38 6.6 SSW 11 20 6 11 1030.2 1030.6 0.0
29/12:30pm 15.5 12.4 3.6 45 5.8 ESE 9 15 5 8 1030.8 1031.1 0.0
29/12:00pm 15.1 12.0 3.6 46 5.5 SE 9 15 5 8 1031.1 1031.5 0.0
29/11:30am 14.3 11.9 6.9 61 3.8 SE 9 17 5 9 1031.8 1032.2 0.0
29/11:00am 14.0 12.0 8.6 70 2.9 E 9 17 5 9 1032.3 1032.7 0.0
29/10:30am 12.9 10.3 7.6 70 2.7 ESE 11 15 6 8 1032.8 1033.2 0.0
29/10:00am 12.2 9.0 8.3 77 2.0 ESE 15 17 8 9 1032.9 1033.3 0.0
29/09:30am 11.0 7.7 8.2 83 1.5 SE 15 19 8 10 1033.1 1033.5 0.0
29/09:00am 10.3 7.0 8.1 86 1.1 SE 15 20 8 11 1033.2 1033.6 0.0
29/08:30am 9.7 6.4 8.1 90 0.8 SE 15 17 8 9 1033.0 1033.4 0.0
29/08:21am 9.5 6.6 8.1 91 0.7 SE 13 19 7 10 1033.0 1033.4 0.0
29/08:00am 8.5 5.4 7.4 93 0.5 SSE 13 17 7 9 1032.9 1033.3 0.0
29/07:30am 8.1 4.7 7.5 96 0.3 SE 15 20 8 11 1032.7 1033.1 0.0
29/07:00am 8.2 5.2 7.8 97 0.2 ESE 13 17 7 9 1032.7 1033.1 0.0
29/06:45am 8.0 5.0 7.6 97 0.2 ESE 13 17 7 9 1032.4 1032.8 0.0
29/06:30am 8.0 5.0 7.6 97 0.2 ESE 13 17 7 9 1032.3 1032.7 0.0
29/06:29am 8.0 5.0 7.6 97 0.2 ESE 13 17 7 9 1032.3 1032.7 0.0
29/06:15am 7.8 4.7 7.4 97 0.2 ESE 13 17 7 9 1032.1 1032.5 0.0
29/06:06am 7.2 4.4 6.8 97 0.2 ESE 11 15 6 8 1031.9 1032.3 0.0
29/06:00am 6.6 3.6 6.2 97 0.2 SE 11 13 6 7 1031.9 1032.3 0.0
29/05:48am 5.5 1.9 5.1 97 0.2 ESE 13 17 7 9 1031.9 1032.3 0.0
29/05:43am 4.7 1.0 4.3 97 0.2 ESE 13 17 7 9 1031.8 1032.2 0.0
29/05:30am 3.6 -0.4 2.6 93 0.4 SSE 13 15 7 8 1031.6 1031.9 0.0
29/05:24am 4.1 0.1 2.9 92 0.5 SSE 13 13 7 7 1031.4 1031.8 0.0
29/05:16am 5.2 1.8 4.2 93 0.5 SSE 11 13 6 7 1031.3 1031.7 0.0
29/05:00am 6.6 3.5 5.7 94 0.4 SE 11 13 6 7 1031.3 1031.7 0.0
29/04:30am 8.1 5.5 7.7 97 0.2 ESE 11 15 6 8 1031.3 1031.7 0.0
29/04:00am 8.2 5.2 7.8 97 0.2 ESE 13 17 7 9 1031.3 1031.7 0.0
29/03:38am 8.2 4.8 7.8 97 0.2 ESE 15 19 8 10 1031.6 1031.9 0.0
29/03:30am 8.2 5.2 7.8 97 0.2 ESE 13 17 7 9 1031.7 1032.0 0.0
29/03:09am 8.2 5.2 7.8 97 0.2 E 13 19 7 10 1031.7 1032.0 0.0
29/03:00am 8.2 5.2 7.8 97 0.2 ESE 13 17 7 9 1031.7 1032.0 0.0
29/02:30am 8.0 5.0 7.6 97 0.2 ESE 13 17 7 9 1031.4 1031.8 0.0
29/02:02am 7.5 4.4 7.1 97 0.2 SE 13 15 7 8 1031.7 1032.0 0.0
29/02:00am 7.4 4.2 7.0 97 0.2 SE 13 15 7 8 1031.7 1032.0 0.0
29/01:49am 6.9 4.0 6.5 97 0.2 ESE 11 13 6 7 1031.8 1032.2 0.0
29/01:30am 6.6 3.6 6.2 97 0.2 ESE 11 15 6 8 1031.8 1032.2 0.0
29/01:00am 7.2 5.1 6.8 97 0.2 SE 7 11 4 6 1031.9 1032.3 0.0
29/12:30am 7.3 4.5 6.9 97 0.2 SE 11 15 6 8 1032.0 1032.4 0.0
29/12:02am 6.7 3.8 6.4 98 0.1 SE 11 17 6 9 1032.1 1032.5 0.0
29/12:00am 6.4 3.4 6.1 98 0.1 SE 11 15 6 8 1032.1 1032.5 0.0
 
Date/Time
EST
Temp
°C
App
Temp
°C
Dew
Point
Rel
Hum
%
Delta-T
°C
Wind Press
QNH
hPa
Press
MSL
hPa
Rain
since 9 am
mm
Dir
 
Spd
km/h
Gust
km/h
Spd
kts
Gust
kts
28/11:58pm 5.7 3.0 5.4 98 0.1 SE 9 15 5 8 1032.1 1032.5 0.0
28/11:56pm 4.7 1.8 4.4 98 0.1 SE 9 13 5 7 1032.1 1032.5 0.0
28/11:53pm 3.9 0.8 3.5 97 0.2 SE 9 13 5 7 1032.2 1032.6 0.0
28/11:30pm 2.9 0.1 2.2 95 0.3 SE 6 7 3 4 1032.4 1032.8 0.0
28/11:03pm 3.9 -0.4 3.3 96 0.3 SE 15 17 8 9 1032.4 1032.8 0.0
28/11:00pm 4.2 0.0 3.6 96 0.3 SE 15 17 8 9 1032.4 1032.8 0.0
28/10:37pm 4.7 0.6 4.4 98 0.1 SE 15 17 8 9 1032.7 1033.1 0.0
28/10:30pm 2.1 -2.5 1.5 96 0.2 SSE 15 17 8 9 1032.8 1033.2 0.0
28/10:17pm 0.9 -3.2 -0.5 90 0.5 SE 11 15 6 8 1032.7 1033.1 0.0
28/10:04pm 1.7 -1.6 0.4 91 0.5 SE 7 9 4 5 1032.7 1033.1 0.0
28/10:00pm 1.7 -1.6 0.4 91 0.5 SE 7 11 4 6 1032.7 1033.1 0.0
28/09:30pm 1.4 -2.0 -0.5 87 0.7 ESE 7 9 4 5 1032.7 1033.1 0.0
28/09:00pm 1.3 -2.8 -0.3 89 0.6 E 11 15 6 8 1032.7 1033.1 0.0
28/08:30pm 1.2 -2.2 -0.6 88 0.7 ESE 7 9 4 5 1032.6 1033.0 0.0
28/08:00pm 1.8 -1.6 -0.6 84 0.9 ESE 7 9 4 5 1032.3 1032.7 0.0
28/07:30pm 2.6 -0.4 0.7 87 0.8 ESE 6 9 3 5 1032.0 1032.4 0.0
28/07:00pm 2.6 -1.4 0.3 85 0.9 SE 11 13 6 7 1031.8 1032.2 0.0
28/06:30pm 3.5 0.4 0.2 79 1.3 SSW 6 9 3 5 1031.8 1032.2 0.0
28/06:00pm 4.9 1.9 0.5 73 1.8 SW 6 7 3 4 1031.3 1031.7 0.0
28/05:30pm 8.2 5.2 1.1 61 3.1 WSW 6 7 3 4 1031.0 1031.4 0.0
28/05:00pm 11.9 8.8 1.5 49 4.7 WSW 7 7 4 4 1030.9 1031.3 0.0

Other Formats:

Comma delimited format used in spreadsheet applications
http://www.bom.gov.au/fwo/IDN60801/IDN60801.94588.axf

JavaScript Object Notation format (JSON) in row-major order
http://www.bom.gov.au/fwo/IDN60801/IDN60801.94588.json